sensor_id;sensor_type;location;lat;lon;timestamp;pressure;altitude;pressure_sealevel;temperature;humidity
20009;BME280;10165;42.662;23.260;2023-06-26T00:02:16;93981.84;;;22.78;71.09
20009;BME280;10165;42.662;23.260;2023-06-26T00:04:43;93971.09;;;22.55;72.10
20009;BME280;10165;42.662;23.260;2023-06-26T00:07:10;93978.41;;;22.58;72.55
20009;BME280;10165;42.662;23.260;2023-06-26T00:09:37;93970.88;;;22.98;70.60
20009;BME280;10165;42.662;23.260;2023-06-26T00:12:04;93981.53;;;22.76;71.21
20009;BME280;10165;42.662;23.260;2023-06-26T00:14:32;93984.59;;;22.78;71.80
20009;BME280;10165;42.662;23.260;2023-06-26T00:16:58;93982.31;;;22.76;71.71
20009;BME280;10165;42.662;23.260;2023-06-26T00:19:25;93984.25;;;22.40;72.62
20009;BME280;10165;42.662;23.260;2023-06-26T00:21:52;93978.91;;;22.72;71.70
20009;BME280;10165;42.662;23.260;2023-06-26T00:24:19;93982.72;;;23.07;70.25
20009;BME280;10165;42.662;23.260;2023-06-26T00:26:47;93986.72;;;22.51;71.80
20009;BME280;10165;42.662;23.260;2023-06-26T00:29:13;93982.38;;;22.37;72.59
20009;BME280;10165;42.662;23.260;2023-06-26T00:31:40;93970.19;;;22.61;72.05
20009;BME280;10165;42.662;23.260;2023-06-26T00:34:07;93971.56;;;22.33;72.78
20009;BME280;10165;42.662;23.260;2023-06-26T00:36:34;93968.50;;;22.31;73.03
20009;BME280;10165;42.662;23.260;2023-06-26T00:39:01;93964.66;;;22.65;72.69
20009;BME280;10165;42.662;23.260;2023-06-26T00:41:27;93971.25;;;22.83;70.97
20009;BME280;10165;42.662;23.260;2023-06-26T00:43:54;93970.09;;;23.29;68.81
20009;BME280;10165;42.662;23.260;2023-06-26T00:46:21;93973.31;;;22.60;71.55
20009;BME280;10165;42.662;23.260;2023-06-26T00:48:48;93965.91;;;22.60;71.67
20009;BME280;10165;42.662;23.260;2023-06-26T00:51:15;93964.75;;;22.25;73.21
20009;BME280;10165;42.662;23.260;2023-06-26T00:53:42;93962.13;;;22.74;72.01
20009;BME280;10165;42.662;23.260;2023-06-26T00:56:09;93956.84;;;22.99;70.70
20009;BME280;10165;42.662;23.260;2023-06-26T00:58:36;93954.16;;;22.63;71.74
20009;BME280;10165;42.662;23.260;2023-06-26T01:01:03;93954.94;;;22.64;71.89
20009;BME280;10165;42.662;23.260;2023-06-26T01:03:32;93950.34;;;22.61;72.20
20009;BME280;10165;42.662;23.260;2023-06-26T01:05:59;93947.31;;;23.07;70.17
20009;BME280;10165;42.662;23.260;2023-06-26T01:08:27;93939.00;;;23.27;69.01
20009;BME280;10165;42.662;23.260;2023-06-26T01:10:54;93939.47;;;22.93;69.99
20009;BME280;10165;42.662;23.260;2023-06-26T01:13:21;93937.56;;;22.42;71.68
20009;BME280;10165;42.662;23.260;2023-06-26T01:15:49;93936.06;;;22.89;70.68
20009;BME280;10165;42.662;23.260;2023-06-26T01:18:16;93940.06;;;22.84;70.36
20009;BME280;10165;42.662;23.260;2023-06-26T01:20:43;93934.97;;;23.03;69.69
20009;BME280;10165;42.662;23.260;2023-06-26T01:23:34;93922.63;;;22.98;69.62
20009;BME280;10165;42.662;23.260;2023-06-26T01:26:14;93921.38;;;23.15;68.19
20009;BME280;10165;42.662;23.260;2023-06-26T01:28:42;93919.47;;;23.00;68.72
20009;BME280;10165;42.662;23.260;2023-06-26T01:31:10;93924.47;;;23.01;68.94
20009;BME280;10165;42.662;23.260;2023-06-26T01:33:38;93919.69;;;23.21;67.82
20009;BME280;10165;42.662;23.260;2023-06-26T01:36:06;93920.69;;;23.44;66.85
20009;BME280;10165;42.662;23.260;2023-06-26T01:38:33;93920.09;;;23.20;67.58
20009;BME280;10165;42.662;23.260;2023-06-26T01:41:02;93916.09;;;23.24;67.71
20009;BME280;10165;42.662;23.260;2023-06-26T01:52:21;93918.25;;;22.52;69.87
20009;BME280;10165;42.662;23.260;2023-06-26T01:57:40;93909.81;;;22.47;70.47
20009;BME280;10165;42.662;23.260;2023-06-26T02:00:09;93911.41;;;22.80;68.39
20009;BME280;10165;42.662;23.260;2023-06-26T02:02:37;93913.50;;;22.56;69.34
20009;BME280;10165;42.662;23.260;2023-06-26T02:05:04;93909.50;;;22.09;71.19
20009;BME280;10165;42.662;23.260;2023-06-26T02:07:31;93905.16;;;21.95;71.53
20009;BME280;10165;42.662;23.260;2023-06-26T02:09:58;93907.56;;;22.09;70.81
20009;BME280;10165;42.662;23.260;2023-06-26T02:12:24;93912.31;;;21.66;73.07
20009;BME280;10165;42.662;23.260;2023-06-26T02:14:51;93912.31;;;22.05;71.53
20009;BME280;10165;42.662;23.260;2023-06-26T02:17:18;93913.66;;;22.33;70.07
20009;BME280;10165;42.662;23.260;2023-06-26T02:19:44;93907.25;;;21.68;72.59
20009;BME280;10165;42.662;23.260;2023-06-26T02:22:15;93911.06;;;21.90;71.47
20009;BME280;10165;42.662;23.260;2023-06-26T02:24:45;93907.31;;;21.84;71.94
20009;BME280;10165;42.662;23.260;2023-06-26T02:27:12;93904.50;;;22.07;70.69
20009;BME280;10165;42.662;23.260;2023-06-26T02:29:39;93905.41;;;22.36;69.51
20009;BME280;10165;42.662;23.260;2023-06-26T02:32:07;93919.59;;;21.92;70.96
20009;BME280;10165;42.662;23.260;2023-06-26T02:34:34;93903.22;;;21.96;71.11
20009;BME280;10165;42.662;23.260;2023-06-26T02:37:01;93911.69;;;21.78;71.55
20009;BME280;10165;42.662;23.260;2023-06-26T02:39:28;93909.25;;;22.03;70.92
20009;BME280;10165;42.662;23.260;2023-06-26T02:41:55;93916.69;;;22.19;70.34
20009;BME280;10165;42.662;23.260;2023-06-26T02:44:21;93915.59;;;21.97;70.58
20009;BME280;10165;42.662;23.260;2023-06-26T02:46:48;93914.31;;;22.21;69.95
20009;BME280;10165;42.662;23.260;2023-06-26T02:49:15;93914.88;;;22.12;70.14
20009;BME280;10165;42.662;23.260;2023-06-26T02:51:41;93909.09;;;22.10;70.01
20009;BME280;10165;42.662;23.260;2023-06-26T02:54:08;93922.94;;;21.80;71.29
20009;BME280;10165;42.662;23.260;2023-06-26T02:56:35;93918.59;;;21.63;72.15
20009;BME280;10165;42.662;23.260;2023-06-26T02:59:12;93916.94;;;21.88;71.54
20009;BME280;10165;42.662;23.260;2023-06-26T03:01:39;93918.88;;;21.88;70.64
20009;BME280;10165;42.662;23.260;2023-06-26T03:04:06;93908.16;;;21.61;72.29
20009;BME280;10165;42.662;23.260;2023-06-26T03:06:33;93909.97;;;21.68;71.85
20009;BME280;10165;42.662;23.260;2023-06-26T03:09:00;93914.78;;;22.16;70.11
20009;BME280;10165;42.662;23.260;2023-06-26T03:11:27;93918.50;;;22.42;68.71
20009;BME280;10165;42.662;23.260;2023-06-26T03:13:54;93925.38;;;21.74;69.97
20009;BME280;10165;42.662;23.260;2023-06-26T03:16:21;93924.66;;;22.10;69.51
20009;BME280;10165;42.662;23.260;2023-06-26T03:18:48;93932.78;;;21.93;69.65
20009;BME280;10165;42.662;23.260;2023-06-26T03:21:14;93920.47;;;22.05;70.23
20009;BME280;10165;42.662;23.260;2023-06-26T03:23:41;93919.88;;;22.33;69.12
20009;BME280;10165;42.662;23.260;2023-06-26T03:26:08;93923.81;;;22.13;69.70
20009;BME280;10165;42.662;23.260;2023-06-26T03:28:34;93929.56;;;21.99;70.32
20009;BME280;10165;42.662;23.260;2023-06-26T03:31:01;93928.47;;;21.96;70.38
20009;BME280;10165;42.662;23.260;2023-06-26T03:33:28;93927.53;;;21.83;71.14
20009;BME280;10165;42.662;23.260;2023-06-26T03:35:55;93926.75;;;22.02;71.04
20009;BME280;10165;42.662;23.260;2023-06-26T03:38:22;93929.22;;;22.32;68.98
20009;BME280;10165;42.662;23.260;2023-06-26T03:40:50;93933.91;;;22.48;68.46
20009;BME280;10165;42.662;23.260;2023-06-26T03:43:17;93935.84;;;22.31;69.30
20009;BME280;10165;42.662;23.260;2023-06-26T03:45:44;93926.31;;;22.39;68.93
20009;BME280;10165;42.662;23.260;2023-06-26T03:48:11;93931.59;;;22.47;68.77
20009;BME280;10165;42.662;23.260;2023-06-26T03:50:38;93922.00;;;22.58;67.96
20009;BME280;10165;42.662;23.260;2023-06-26T03:53:05;93920.97;;;22.36;69.07
20009;BME280;10165;42.662;23.260;2023-06-26T03:55:31;93922.34;;;22.44;69.13
20009;BME280;10165;42.662;23.260;2023-06-26T03:57:58;93919.63;;;22.08;70.34
20009;BME280;10165;42.662;23.260;2023-06-26T04:00:25;93922.59;;;22.33;69.34
20009;BME280;10165;42.662;23.260;2023-06-26T04:02:51;93920.97;;;22.36;68.80
20009;BME280;10165;42.662;23.260;2023-06-26T04:05:18;93926.72;;;22.22;69.01
20009;BME280;10165;42.662;23.260;2023-06-26T04:07:45;93923.53;;;22.59;68.09
20009;BME280;10165;42.662;23.260;2023-06-26T04:10:12;93927.69;;;21.96;70.31
20009;BME280;10165;42.662;23.260;2023-06-26T04:12:38;93920.47;;;22.05;70.85
20009;BME280;10165;42.662;23.260;2023-06-26T04:15:05;93926.41;;;22.36;69.42
20009;BME280;10165;42.662;23.260;2023-06-26T04:17:32;93936.63;;;22.48;68.63
20009;BME280;10165;42.662;23.260;2023-06-26T04:19:59;93925.91;;;22.41;69.08
20009;BME280;10165;42.662;23.260;2023-06-26T04:22:26;93921.09;;;22.65;67.98
20009;BME280;10165;42.662;23.260;2023-06-26T04:24:53;93926.03;;;22.86;66.31
20009;BME280;10165;42.662;23.260;2023-06-26T04:27:19;93936.75;;;22.77;67.70
20009;BME280;10165;42.662;23.260;2023-06-26T04:29:46;93943.66;;;22.29;68.87
20009;BME280;10165;42.662;23.260;2023-06-26T04:32:13;93928.88;;;22.30;69.64
20009;BME280;10165;42.662;23.260;2023-06-26T04:34:39;93936.22;;;22.66;67.55
20009;BME280;10165;42.662;23.260;2023-06-26T04:37:09;93930.69;;;22.53;68.37
20009;BME280;10165;42.662;23.260;2023-06-26T04:39:37;93939.09;;;22.59;68.06
20009;BME280;10165;42.662;23.260;2023-06-26T04:42:05;93939.44;;;21.89;70.95
20009;BME280;10165;42.662;23.260;2023-06-26T04:44:32;93939.75;;;22.30;69.23
20009;BME280;10165;42.662;23.260;2023-06-26T04:47:00;93937.50;;;22.61;68.99
20009;BME280;10165;42.662;23.260;2023-06-26T04:49:27;93937.91;;;22.60;69.83
20009;BME280;10165;42.662;23.260;2023-06-26T04:51:55;93940.81;;;23.01;68.04
20009;BME280;10165;42.662;23.260;2023-06-26T04:54:22;93941.88;;;23.07;68.20
20009;BME280;10165;42.662;23.260;2023-06-26T04:56:49;93943.47;;;23.05;68.01
20009;BME280;10165;42.662;23.260;2023-06-26T04:59:16;93947.22;;;22.78;68.90
20009;BME280;10165;42.662;23.260;2023-06-26T05:01:43;93938.88;;;22.17;70.27
20009;BME280;10165;42.662;23.260;2023-06-26T05:04:15;93934.63;;;22.16;71.43
20009;BME280;10165;42.662;23.260;2023-06-26T05:06:42;93942.84;;;22.13;71.97
20009;BME280;10165;42.662;23.260;2023-06-26T05:09:08;93947.03;;;21.78;72.36
20009;BME280;10165;42.662;23.260;2023-06-26T05:11:37;93944.41;;;21.74;72.77
20009;BME280;10165;42.662;23.260;2023-06-26T05:14:04;93947.13;;;22.14;71.13
20009;BME280;10165;42.662;23.260;2023-06-26T05:16:33;93950.97;;;21.97;71.84
20009;BME280;10165;42.662;23.260;2023-06-26T05:19:03;93955.91;;;21.42;73.22
20009;BME280;10165;42.662;23.260;2023-06-26T05:21:30;93955.72;;;21.73;73.53
20009;BME280;10165;42.662;23.260;2023-06-26T05:23:57;93954.44;;;21.97;72.48
20009;BME280;10165;42.662;23.260;2023-06-26T05:26:25;93962.19;;;21.79;72.75
20009;BME280;10165;42.662;23.260;2023-06-26T05:28:53;93951.56;;;22.04;72.60
20009;BME280;10165;42.662;23.260;2023-06-26T05:31:20;93956.00;;;21.98;72.81
20009;BME280;10165;42.662;23.260;2023-06-26T05:33:47;93957.97;;;21.55;73.83
20009;BME280;10165;42.662;23.260;2023-06-26T05:36:16;93958.47;;;21.89;73.41
20009;BME280;10165;42.662;23.260;2023-06-26T05:38:43;93958.31;;;22.00;72.70
20009;BME280;10165;42.662;23.260;2023-06-26T05:41:10;93959.13;;;21.57;73.12
20009;BME280;10165;42.662;23.260;2023-06-26T05:43:37;93968.31;;;21.63;74.34
20009;BME280;10165;42.662;23.260;2023-06-26T05:46:03;93966.09;;;22.17;72.29
20009;BME280;10165;42.662;23.260;2023-06-26T05:48:30;93963.03;;;22.67;70.26
20009;BME280;10165;42.662;23.260;2023-06-26T05:50:57;93960.94;;;22.91;69.35
20009;BME280;10165;42.662;23.260;2023-06-26T05:53:24;93958.38;;;23.00;69.07
20009;BME280;10165;42.662;23.260;2023-06-26T05:55:51;93964.94;;;22.51;69.89
20009;BME280;10165;42.662;23.260;2023-06-26T05:58:20;93962.03;;;22.77;70.31
20009;BME280;10165;42.662;23.260;2023-06-26T06:00:47;93963.13;;;22.96;69.12
20009;BME280;10165;42.662;23.260;2023-06-26T06:03:14;93969.22;;;22.52;70.33
20009;BME280;10165;42.662;23.260;2023-06-26T06:05:41;93961.78;;;22.88;68.69
20009;BME280;10165;42.662;23.260;2023-06-26T06:08:08;93965.84;;;22.96;68.25
20009;BME280;10165;42.662;23.260;2023-06-26T06:10:34;93965.19;;;22.76;69.16
20009;BME280;10165;42.662;23.260;2023-06-26T06:13:02;93964.56;;;23.33;67.50
20009;BME280;10165;42.662;23.260;2023-06-26T06:15:28;93966.81;;;22.90;68.08
20009;BME280;10165;42.662;23.260;2023-06-26T06:17:56;93970.72;;;23.05;68.32
20009;BME280;10165;42.662;23.260;2023-06-26T06:20:24;93969.56;;;23.34;67.05
20009;BME280;10165;42.662;23.260;2023-06-26T06:22:51;93966.94;;;23.31;67.36
20009;BME280;10165;42.662;23.260;2023-06-26T06:25:17;93958.63;;;22.90;69.08
20009;BME280;10165;42.662;23.260;2023-06-26T06:27:44;93963.91;;;22.97;68.67
20009;BME280;10165;42.662;23.260;2023-06-26T06:30:11;93961.19;;;22.80;67.66
20009;BME280;10165;42.662;23.260;2023-06-26T06:32:38;93959.53;;;23.31;67.35
20009;BME280;10165;42.662;23.260;2023-06-26T06:35:05;93963.59;;;23.40;65.60
20009;BME280;10165;42.662;23.260;2023-06-26T06:37:37;93959.06;;;22.72;67.31
20009;BME280;10165;42.662;23.260;2023-06-26T06:40:09;93958.00;;;22.50;69.58
20009;BME280;10165;42.662;23.260;2023-06-26T06:42:36;93951.41;;;22.99;67.00
20009;BME280;10165;42.662;23.260;2023-06-26T06:45:03;93956.16;;;22.95;67.34
20009;BME280;10165;42.662;23.260;2023-06-26T06:47:32;93947.25;;;23.40;65.83
20009;BME280;10165;42.662;23.260;2023-06-26T06:50:00;93958.84;;;23.11;65.96
20009;BME280;10165;42.662;23.260;2023-06-26T06:52:39;93951.78;;;23.75;64.47
20009;BME280;10165;42.662;23.260;2023-06-26T06:55:07;93959.63;;;23.44;64.67
20009;BME280;10165;42.662;23.260;2023-06-26T06:57:38;93955.22;;;23.92;64.91
20009;BME280;10165;42.662;23.260;2023-06-26T07:00:06;93953.44;;;24.39;62.69
20009;BME280;10165;42.662;23.260;2023-06-26T07:02:37;93964.28;;;23.60;63.08
20009;BME280;10165;42.662;23.260;2023-06-26T07:05:05;93956.56;;;23.71;63.18
20009;BME280;10165;42.662;23.260;2023-06-26T07:07:33;93961.16;;;23.74;63.19
20009;BME280;10165;42.662;23.260;2023-06-26T07:10:06;93950.06;;;24.35;62.93
20009;BME280;10165;42.662;23.260;2023-06-26T07:12:35;93956.16;;;23.85;63.67
20009;BME280;10165;42.662;23.260;2023-06-26T07:15:02;93952.28;;;24.11;62.77
20009;BME280;10165;42.662;23.260;2023-06-26T07:17:31;93948.53;;;23.93;64.27
20009;BME280;10165;42.662;23.260;2023-06-26T07:20:00;93962.34;;;23.73;62.49
20009;BME280;10165;42.662;23.260;2023-06-26T07:22:27;93949.34;;;23.64;61.37
20009;BME280;10165;42.662;23.260;2023-06-26T07:24:54;93951.03;;;23.46;63.31
20009;BME280;10165;42.662;23.260;2023-06-26T07:27:20;93945.41;;;23.65;62.15
20009;BME280;10165;42.662;23.260;2023-06-26T07:29:47;93945.59;;;23.87;62.19
20009;BME280;10165;42.662;23.260;2023-06-26T07:32:14;93943.09;;;23.93;62.71
20009;BME280;10165;42.662;23.260;2023-06-26T07:34:41;93952.53;;;23.75;62.45
20009;BME280;10165;42.662;23.260;2023-06-26T07:37:08;93957.09;;;23.66;63.29
20009;BME280;10165;42.662;23.260;2023-06-26T07:39:35;93953.56;;;23.37;63.14
20009;BME280;10165;42.662;23.260;2023-06-26T07:42:01;93951.81;;;23.14;61.61
20009;BME280;10165;42.662;23.260;2023-06-26T07:44:28;93955.41;;;23.56;60.00
20009;BME280;10165;42.662;23.260;2023-06-26T07:46:55;93952.75;;;24.10;59.73
20009;BME280;10165;42.662;23.260;2023-06-26T07:49:22;93955.00;;;24.40;58.30
20009;BME280;10165;42.662;23.260;2023-06-26T07:51:49;93955.63;;;24.32;57.76
20009;BME280;10165;42.662;23.260;2023-06-26T07:54:15;93959.47;;;24.85;58.57
20009;BME280;10165;42.662;23.260;2023-06-26T07:59:23;93950.81;;;24.61;59.82
20009;BME280;10165;42.662;23.260;2023-06-26T08:01:52;93947.66;;;24.62;58.38
20009;BME280;10165;42.662;23.260;2023-06-26T08:04:20;93956.31;;;24.99;57.35
20009;BME280;10165;42.662;23.260;2023-06-26T08:06:51;93957.75;;;24.91;56.58
20009;BME280;10165;42.662;23.260;2023-06-26T08:09:20;93950.28;;;24.28;57.73
20009;BME280;10165;42.662;23.260;2023-06-26T08:11:47;93951.16;;;24.50;57.39
20009;BME280;10165;42.662;23.260;2023-06-26T08:14:15;93949.97;;;24.64;57.32
20009;BME280;10165;42.662;23.260;2023-06-26T08:16:43;93942.28;;;25.22;56.30
20009;BME280;10165;42.662;23.260;2023-06-26T08:19:14;93948.63;;;24.81;55.53
20009;BME280;10165;42.662;23.260;2023-06-26T08:21:42;93949.97;;;24.26;56.87
20009;BME280;10165;42.662;23.260;2023-06-26T08:24:09;93946.03;;;24.90;56.58
20009;BME280;10165;42.662;23.260;2023-06-26T08:26:36;93954.00;;;24.21;57.78
20009;BME280;10165;42.662;23.260;2023-06-26T08:29:03;93948.53;;;24.47;56.67
20009;BME280;10165;42.662;23.260;2023-06-26T08:31:39;93949.97;;;24.89;56.64
20009;BME280;10165;42.662;23.260;2023-06-26T08:34:06;93945.16;;;24.68;55.96
20009;BME280;10165;42.662;23.260;2023-06-26T08:36:34;93948.78;;;24.90;55.74
20009;BME280;10165;42.662;23.260;2023-06-26T08:39:01;93957.19;;;24.70;55.57
20009;BME280;10165;42.662;23.260;2023-06-26T08:41:27;93954.31;;;24.99;53.55
20009;BME280;10165;42.662;23.260;2023-06-26T08:43:54;93945.97;;;25.28;53.64
20009;BME280;10165;42.662;23.260;2023-06-26T08:46:21;93947.31;;;25.45;52.79
20009;BME280;10165;42.662;23.260;2023-06-26T08:48:51;93961.44;;;24.84;52.09
20009;BME280;10165;42.662;23.260;2023-06-26T08:51:24;93962.50;;;23.82;54.84
20009;BME280;10165;42.662;23.260;2023-06-26T08:54:00;93955.97;;;24.34;55.16
20009;BME280;10165;42.662;23.260;2023-06-26T08:56:41;93954.44;;;24.58;52.93
20009;BME280;10165;42.662;23.260;2023-06-26T08:59:09;93957.91;;;24.20;54.54
20009;BME280;10165;42.662;23.260;2023-06-26T09:01:37;93952.81;;;24.60;54.21
20009;BME280;10165;42.662;23.260;2023-06-26T09:04:06;93955.31;;;24.93;54.55
20009;BME280;10165;42.662;23.260;2023-06-26T09:06:34;93960.56;;;25.00;52.46
20009;BME280;10165;42.662;23.260;2023-06-26T09:09:02;93954.00;;;25.79;52.64
20009;BME280;10165;42.662;23.260;2023-06-26T09:11:30;93951.47;;;25.50;51.59
20009;BME280;10165;42.662;23.260;2023-06-26T09:13:57;93955.00;;;25.38;51.06
20009;BME280;10165;42.662;23.260;2023-06-26T09:16:25;93946.75;;;25.16;51.82
20009;BME280;10165;42.662;23.260;2023-06-26T09:18:53;93945.81;;;25.44;52.60
20009;BME280;10165;42.662;23.260;2023-06-26T09:21:22;93952.28;;;25.72;51.67
20009;BME280;10165;42.662;23.260;2023-06-26T09:23:52;93952.69;;;25.49;50.81
20009;BME280;10165;42.662;23.260;2023-06-26T09:26:21;93946.56;;;25.45;51.59
20009;BME280;10165;42.662;23.260;2023-06-26T09:28:49;93948.06;;;25.11;51.61
20009;BME280;10165;42.662;23.260;2023-06-26T09:31:16;93945.16;;;24.93;52.37
20009;BME280;10165;42.662;23.260;2023-06-26T09:34:03;93949.41;;;24.69;52.92
20009;BME280;10165;42.662;23.260;2023-06-26T09:36:33;93957.28;;;24.80;51.52
20009;BME280;10165;42.662;23.260;2023-06-26T09:39:06;93955.97;;;25.09;51.06
20009;BME280;10165;42.662;23.260;2023-06-26T09:41:38;93939.16;;;24.98;50.70
20009;BME280;10165;42.662;23.260;2023-06-26T09:44:05;93951.44;;;25.28;49.99
20009;BME280;10165;42.662;23.260;2023-06-26T09:46:35;93945.59;;;24.79;50.75
20009;BME280;10165;42.662;23.260;2023-06-26T09:49:10;93954.97;;;25.03;47.93
20009;BME280;10165;42.662;23.260;2023-06-26T09:51:41;93948.47;;;25.22;48.47
20009;BME280;10165;42.662;23.260;2023-06-26T09:54:11;93942.59;;;25.80;49.85
20009;BME280;10165;42.662;23.260;2023-06-26T09:56:38;93955.63;;;25.07;49.59
20009;BME280;10165;42.662;23.260;2023-06-26T09:59:05;93950.41;;;24.75;49.50
20009;BME280;10165;42.662;23.260;2023-06-26T10:01:33;93946.09;;;25.12;49.27
20009;BME280;10165;42.662;23.260;2023-06-26T10:04:00;93947.88;;;25.06;48.64
20009;BME280;10165;42.662;23.260;2023-06-26T10:09:02;93944.75;;;25.29;47.43
20009;BME280;10165;42.662;23.260;2023-06-26T10:14:07;93938.53;;;25.29;47.51
20009;BME280;10165;42.662;23.260;2023-06-26T10:16:44;93931.59;;;25.71;47.32
20009;BME280;10165;42.662;23.260;2023-06-26T10:19:12;93928.56;;;26.43;46.57
20009;BME280;10165;42.662;23.260;2023-06-26T10:21:40;93928.16;;;26.23;46.39
20009;BME280;10165;42.662;23.260;2023-06-26T10:24:08;93935.25;;;25.68;45.98
20009;BME280;10165;42.662;23.260;2023-06-26T10:26:44;93935.66;;;25.88;46.70
20009;BME280;10165;42.662;23.260;2023-06-26T10:29:13;93930.53;;;25.90;47.66
20009;BME280;10165;42.662;23.260;2023-06-26T10:31:54;93926.00;;;25.75;45.93
20009;BME280;10165;42.662;23.260;2023-06-26T10:34:23;93941.13;;;26.32;47.44
20009;BME280;10165;42.662;23.260;2023-06-26T10:37:01;93937.56;;;25.57;48.68
20009;BME280;10165;42.662;23.260;2023-06-26T10:39:45;93935.41;;;25.74;48.72
20009;BME280;10165;42.662;23.260;2023-06-26T10:42:14;93934.19;;;25.53;47.67
20009;BME280;10165;42.662;23.260;2023-06-26T10:44:46;93933.25;;;25.68;47.73
20009;BME280;10165;42.662;23.260;2023-06-26T10:47:32;93941.75;;;25.49;46.88
20009;BME280;10165;42.662;23.260;2023-06-26T10:53:14;93932.69;;;26.48;43.79
20009;BME280;10165;42.662;23.260;2023-06-26T10:55:42;93931.03;;;26.20;45.19
20009;BME280;10165;42.662;23.260;2023-06-26T10:58:49;93930.97;;;26.41;44.95
20009;BME280;10165;42.662;23.260;2023-06-26T11:01:17;93931.53;;;26.05;44.38
20009;BME280;10165;42.662;23.260;2023-06-26T11:03:47;93915.94;;;25.93;45.00
20009;BME280;10165;42.662;23.260;2023-06-26T11:06:20;93921.25;;;26.40;44.77
20009;BME280;10165;42.662;23.260;2023-06-26T11:08:49;93924.84;;;26.28;46.10
20009;BME280;10165;42.662;23.260;2023-06-26T11:11:17;93920.09;;;26.90;45.18
20009;BME280;10165;42.662;23.260;2023-06-26T11:13:45;93928.63;;;26.22;44.69
20009;BME280;10165;42.662;23.260;2023-06-26T11:16:13;93920.34;;;26.43;45.53
20009;BME280;10165;42.662;23.260;2023-06-26T11:18:44;93924.47;;;25.95;46.48
20009;BME280;10165;42.662;23.260;2023-06-26T11:21:12;93921.72;;;26.17;45.14
20009;BME280;10165;42.662;23.260;2023-06-26T11:23:44;93924.28;;;25.34;46.57
20009;BME280;10165;42.662;23.260;2023-06-26T11:26:20;93925.94;;;25.31;46.73
20009;BME280;10165;42.662;23.260;2023-06-26T11:28:50;93930.16;;;25.10;46.13
20009;BME280;10165;42.662;23.260;2023-06-26T11:33:52;93931.66;;;25.11;45.09
20009;BME280;10165;42.662;23.260;2023-06-26T11:36:19;93917.75;;;25.87;45.29
20009;BME280;10165;42.662;23.260;2023-06-26T11:38:46;93919.63;;;26.21;44.80
20009;BME280;10165;42.662;23.260;2023-06-26T11:41:17;93919.25;;;26.10;44.25
20009;BME280;10165;42.662;23.260;2023-06-26T11:43:44;93910.47;;;25.93;45.62
20009;BME280;10165;42.662;23.260;2023-06-26T11:46:10;93914.97;;;26.71;44.10
20009;BME280;10165;42.662;23.260;2023-06-26T11:48:37;93916.66;;;26.77;44.39
20009;BME280;10165;42.662;23.260;2023-06-26T11:51:05;93915.09;;;26.05;43.92
20009;BME280;10165;42.662;23.260;2023-06-26T11:53:39;93921.44;;;25.72;45.22
20009;BME280;10165;42.662;23.260;2023-06-26T11:56:14;93918.63;;;26.06;46.32
20009;BME280;10165;42.662;23.260;2023-06-26T12:01:34;93908.50;;;25.94;45.21
20009;BME280;10165;42.662;23.260;2023-06-26T12:04:04;93912.72;;;26.16;43.61
20009;BME280;10165;42.662;23.260;2023-06-26T12:06:33;93905.56;;;25.88;44.50
20009;BME280;10165;42.662;23.260;2023-06-26T12:09:02;93899.41;;;27.17;44.48
20009;BME280;10165;42.662;23.260;2023-06-26T12:11:34;93901.41;;;27.43;42.93
20009;BME280;10165;42.662;23.260;2023-06-26T12:14:01;93900.13;;;26.50;43.33
20009;BME280;10165;42.662;23.260;2023-06-26T12:16:33;93904.97;;;26.15;44.52
20009;BME280;10165;42.662;23.260;2023-06-26T12:19:01;93902.53;;;26.17;43.12
20009;BME280;10165;42.662;23.260;2023-06-26T12:24:08;93918.09;;;25.55;44.09
20009;BME280;10165;42.662;23.260;2023-06-26T12:26:35;93914.78;;;26.25;42.41
20009;BME280;10165;42.662;23.260;2023-06-26T12:29:07;93904.16;;;26.67;43.65
20009;BME280;10165;42.662;23.260;2023-06-26T12:31:34;93911.88;;;27.18;41.67
20009;BME280;10165;42.662;23.260;2023-06-26T12:34:12;93906.81;;;26.49;42.27
20009;BME280;10165;42.662;23.260;2023-06-26T12:36:46;93910.91;;;26.13;43.60
20009;BME280;10165;42.662;23.260;2023-06-26T12:39:13;93903.25;;;26.08;44.21
20009;BME280;10165;42.662;23.260;2023-06-26T12:41:48;93914.66;;;25.85;45.30
20009;BME280;10165;42.662;23.260;2023-06-26T12:44:25;93905.84;;;26.34;44.79
20009;BME280;10165;42.662;23.260;2023-06-26T12:47:00;93910.16;;;26.44;44.74
20009;BME280;10165;42.662;23.260;2023-06-26T12:49:36;93899.34;;;26.49;44.18
20009;BME280;10165;42.662;23.260;2023-06-26T12:52:05;93905.66;;;26.06;44.37
20009;BME280;10165;42.662;23.260;2023-06-26T12:54:33;93903.50;;;26.94;43.72
20009;BME280;10165;42.662;23.260;2023-06-26T12:57:00;93900.66;;;26.76;43.47
20009;BME280;10165;42.662;23.260;2023-06-26T12:59:27;93898.69;;;26.67;43.93
20009;BME280;10165;42.662;23.260;2023-06-26T13:01:54;93892.53;;;27.12;44.21
20009;BME280;10165;42.662;23.260;2023-06-26T13:04:21;93902.38;;;26.82;43.14
20009;BME280;10165;42.662;23.260;2023-06-26T13:06:47;93895.03;;;26.70;44.37
20009;BME280;10165;42.662;23.260;2023-06-26T13:09:14;93898.63;;;26.58;45.05
20009;BME280;10165;42.662;23.260;2023-06-26T13:11:41;93896.22;;;26.69;45.32
20009;BME280;10165;42.662;23.260;2023-06-26T13:14:08;93901.06;;;27.14;44.92
20009;BME280;10165;42.662;23.260;2023-06-26T13:16:37;93901.22;;;27.10;45.55
20009;BME280;10165;42.662;23.260;2023-06-26T13:19:04;93900.22;;;26.77;45.43
20009;BME280;10165;42.662;23.260;2023-06-26T13:21:31;93907.53;;;26.80;45.61
20009;BME280;10165;42.662;23.260;2023-06-26T13:23:58;93892.56;;;27.21;46.33
20009;BME280;10165;42.662;23.260;2023-06-26T13:26:26;93903.34;;;26.57;44.05
20009;BME280;10165;42.662;23.260;2023-06-26T13:29:03;93897.56;;;27.04;44.12